AAL313 KBOS-KEWR
Flight info
| Callsign | AAL313 |
|---|---|
| Flight time | N/A |
| Altitude | 7000 |
| Route | PATSS7 PATSS NELIE FLOSI4 |
| Aircraft | B738/M-SDE2E3FGHIRWXY/LB1 |
Departure
| Time | N/A |
|---|---|
| Airport | Boston Logan International Airport (KBOS) |
Arrival
| Time | 2026-04-24 19:17 |
|---|---|
| Airport | Newark Liberty International Airport (KEWR) |
| Time | Latitude | Longitude | Altitude | Speed | Heading |
|---|---|---|---|---|---|
| 2026-04-24 18:54 | 41.76722 | -73.21734 | 15980 ft | 428 kts | 232° |
| 2026-04-24 18:55 | 41.72305 | -73.27061 | 16004 ft | 428 kts | 232° |
| 2026-04-24 18:55 | 41.70097 | -73.29738 | 16010 ft | 428 kts | 232° |
| 2026-04-24 18:55 | 41.67895 | -73.32417 | 15990 ft | 428 kts | 231° |
| 2026-04-24 18:56 | 41.65689 | -73.35109 | 15991 ft | 429 kts | 232° |
| 2026-04-24 18:56 | 41.63493 | -73.37793 | 16000 ft | 429 kts | 232° |
| 2026-04-24 18:56 | 41.61286 | -73.40492 | 16009 ft | 430 kts | 231° |
| 2026-04-24 18:56 | 41.59078 | -73.43190 | 16003 ft | 430 kts | 231° |
| 2026-04-24 18:57 | 41.56867 | -73.45888 | 16008 ft | 430 kts | 231° |
| 2026-04-24 18:57 | 41.54661 | -73.48577 | 16005 ft | 430 kts | 231° |
| 2026-04-24 18:57 | 41.52481 | -73.51231 | 16004 ft | 429 kts | 231° |
| 2026-04-24 18:57 | 41.50273 | -73.53914 | 16002 ft | 429 kts | 231° |
| 2026-04-24 18:58 | 41.48066 | -73.56597 | 16019 ft | 429 kts | 231° |
| 2026-04-24 18:58 | 41.45857 | -73.59280 | 16005 ft | 429 kts | 231° |
| 2026-04-24 18:58 | 41.43647 | -73.61962 | 16000 ft | 429 kts | 231° |
| 2026-04-24 18:58 | 41.41446 | -73.64631 | 15999 ft | 428 kts | 231° |
| 2026-04-24 18:59 | 41.39244 | -73.67296 | 15994 ft | 426 kts | 231° |
| 2026-04-24 18:59 | 41.37046 | -73.69953 | 15991 ft | 426 kts | 231° |
| 2026-04-24 18:59 | 41.34847 | -73.72610 | 15996 ft | 426 kts | 231° |
| 2026-04-24 18:59 | 41.32657 | -73.75255 | 16004 ft | 426 kts | 231° |
| 2026-04-24 19:00 | 41.30463 | -73.77904 | 16000 ft | 426 kts | 231° |
| 2026-04-24 19:00 | 41.28263 | -73.80557 | 15988 ft | 427 kts | 231° |
| 2026-04-24 19:00 | 41.26062 | -73.83207 | 15993 ft | 427 kts | 231° |
| 2026-04-24 19:00 | 41.23881 | -73.85823 | 15718 ft | 417 kts | 231° |
| 2026-04-24 19:01 | 41.21734 | -73.88395 | 15109 ft | 413 kts | 231° |
| 2026-04-24 19:01 | 41.19614 | -73.90935 | 14503 ft | 408 kts | 231° |
| 2026-04-24 19:01 | 41.17520 | -73.93446 | 13899 ft | 404 kts | 231° |
| 2026-04-24 19:01 | 41.15441 | -73.95939 | 13212 ft | 402 kts | 231° |
| 2026-04-24 19:02 | 41.14071 | -73.97582 | 12771 ft | 399 kts | 231° |
| 2026-04-24 19:02 | 41.11334 | -74.00857 | 11910 ft | 394 kts | 230° |
| 2026-04-24 19:02 | 41.09332 | -74.03247 | 11306 ft | 390 kts | 231° |
| 2026-04-24 19:02 | 41.07334 | -74.05630 | 10995 ft | 378 kts | 231° |
| 2026-04-24 19:03 | 41.05417 | -74.07907 | 10848 ft | 363 kts | 231° |
| 2026-04-24 19:03 | 41.03582 | -74.10082 | 10680 ft | 343 kts | 231° |
| 2026-04-24 19:03 | 41.01860 | -74.12119 | 10532 ft | 322 kts | 232° |
| 2026-04-24 19:03 | 41.00234 | -74.14046 | 10396 ft | 304 kts | 233° |
| 2026-04-24 19:04 | 40.98696 | -74.15874 | 10275 ft | 291 kts | 233° |
| 2026-04-24 19:04 | 40.97206 | -74.17654 | 10184 ft | 288 kts | 233° |
| 2026-04-24 19:04 | 40.95719 | -74.19440 | 10072 ft | 291 kts | 233° |
| 2026-04-24 19:04 | 40.94209 | -74.21251 | 9865 ft | 295 kts | 233° |
| 2026-04-24 19:05 | 40.92678 | -74.23084 | 9542 ft | 297 kts | 233° |
| 2026-04-24 19:05 | 40.91158 | -74.24888 | 9204 ft | 292 kts | 232° |
| 2026-04-24 19:05 | 40.89649 | -74.26677 | 8880 ft | 290 kts | 232° |
| 2026-04-24 19:05 | 40.88153 | -74.28450 | 8588 ft | 288 kts | 232° |
| 2026-04-24 19:06 | 40.86668 | -74.30208 | 8291 ft | 286 kts | 231° |
| 2026-04-24 19:06 | 40.85185 | -74.31963 | 7991 ft | 284 kts | 231° |
| 2026-04-24 19:06 | 40.83716 | -74.33701 | 7696 ft | 283 kts | 231° |
| 2026-04-24 19:06 | 40.82250 | -74.35434 | 7391 ft | 282 kts | 230° |
| 2026-04-24 19:07 | 40.80794 | -74.37157 | 7067 ft | 281 kts | 229° |
| 2026-04-24 19:07 | 40.79338 | -74.38876 | 6775 ft | 281 kts | 229° |
| 2026-04-24 19:07 | 40.78348 | -74.39981 | 6580 ft | 284 kts | 221° |
| 2026-04-24 19:07 | 40.75791 | -74.41211 | 5981 ft | 303 kts | 194° |
| 2026-04-24 19:08 | 40.73719 | -74.41819 | 5497 ft | 308 kts | 197° |
| 2026-04-24 19:08 | 40.71624 | -74.42524 | 4988 ft | 312 kts | 197° |
| 2026-04-24 19:08 | 40.69520 | -74.43280 | 4462 ft | 314 kts | 197° |
| 2026-04-24 19:08 | 40.67415 | -74.44063 | 3965 ft | 315 kts | 197° |
| 2026-04-24 19:09 | 40.65301 | -74.44866 | 3493 ft | 316 kts | 198° |
| 2026-04-24 19:09 | 40.63211 | -74.45666 | 3227 ft | 309 kts | 198° |
| 2026-04-24 19:09 | 40.61205 | -74.46440 | 3012 ft | 300 kts | 197° |
| 2026-04-24 19:09 | 40.59213 | -74.46990 | 2952 ft | 288 kts | 181° |
| 2026-04-24 19:10 | 40.57277 | -74.46661 | 2943 ft | 276 kts | 169° |
| 2026-04-24 19:10 | 40.55446 | -74.46131 | 2959 ft | 264 kts | 168° |
| 2026-04-24 19:10 | 40.53700 | -74.45596 | 2961 ft | 251 kts | 168° |
| 2026-04-24 19:10 | 40.52084 | -74.44916 | 2993 ft | 240 kts | 150° |
| 2026-04-24 19:11 | 40.50936 | -74.43397 | 3004 ft | 234 kts | 116° |
| 2026-04-24 19:11 | 40.50556 | -74.41354 | 3011 ft | 232 kts | 91° |
| 2026-04-24 19:11 | 40.50547 | -74.39218 | 3004 ft | 240 kts | 88° |
| 2026-04-24 19:11 | 40.50575 | -74.36978 | 2744 ft | 248 kts | 88° |
| 2026-04-24 19:12 | 40.50731 | -74.34738 | 2538 ft | 245 kts | 71° |
| 2026-04-24 19:12 | 40.51311 | -74.32685 | 2500 ft | 236 kts | 68° |
| 2026-04-24 19:12 | 40.51883 | -74.30722 | 2500 ft | 224 kts | 66° |
| 2026-04-24 19:12 | 40.52414 | -74.28878 | 2518 ft | 207 kts | 67° |
| 2026-04-24 19:13 | 40.52753 | -74.27706 | 2493 ft | 198 kts | 63° |
| 2026-04-24 19:13 | 40.54008 | -74.26251 | 2545 ft | 183 kts | 23° |
| 2026-04-24 19:13 | 40.55147 | -74.25509 | 2510 ft | 179 kts | 26° |
| 2026-04-24 19:13 | 40.56241 | -74.24790 | 2470 ft | 172 kts | 25° |
| 2026-04-24 19:14 | 40.57322 | -74.24093 | 2312 ft | 175 kts | 25° |
| 2026-04-24 19:14 | 40.58396 | -74.23404 | 2115 ft | 168 kts | 24° |
| 2026-04-24 19:14 | 40.59422 | -74.22749 | 1913 ft | 158 kts | 25° |
| 2026-04-24 19:14 | 40.60401 | -74.22123 | 1696 ft | 155 kts | 24° |
| 2026-04-24 19:15 | 40.61359 | -74.21513 | 1472 ft | 151 kts | 24° |
| 2026-04-24 19:15 | 40.62307 | -74.20914 | 1277 ft | 153 kts | 25° |
| 2026-04-24 19:15 | 40.63257 | -74.20278 | 1126 ft | 154 kts | 27° |
| 2026-04-24 19:15 | 40.64214 | -74.19642 | 922 ft | 155 kts | 25° |
| 2026-04-24 19:16 | 40.66157 | -74.18465 | 468 ft | 152 kts | 28° |
| 2026-04-24 19:16 | 40.67113 | -74.17843 | 280 ft | 155 kts | 31° |
| 2026-04-24 19:16 | 40.68095 | -74.17224 | 91 ft | 156 kts | 31° |
| 2026-04-24 19:17 | 40.69033 | -74.16609 | 23 ft | 140 kts | 30° |
| 2026-04-24 19:17 | 40.69717 | -74.16172 | 17 ft | 73 kts | 25° |
| 2026-04-24 19:17 | 40.69934 | -74.16053 | 19 ft | 18 kts | 13° |
| 2026-04-24 19:17 | 40.70012 | -74.16105 | 19 ft | 12 kts | 300° |
| 2026-04-24 19:18 | 40.70023 | -74.16132 | 18 ft | 0 kts | 297° |
| 2026-04-24 19:18 | 40.70024 | -74.16132 | 18 ft | 1 kts | 297° |
| 2026-04-24 19:18 | 40.70047 | -74.16194 | 17 ft | 14 kts | 296° |